createdAt,value
2023-05-18T00:00:54.461Z,15.06
2023-05-18T00:03:21.885Z,15.04
2023-05-18T00:05:49.627Z,15.02
2023-05-18T00:08:17.092Z,14.98
2023-05-18T00:10:44.321Z,14.95
2023-05-18T00:13:11.639Z,14.97
2023-05-18T00:15:39.020Z,14.92
2023-05-18T00:18:07.268Z,14.89
2023-05-18T00:20:35.054Z,14.88
2023-05-18T00:23:02.760Z,14.84
2023-05-18T00:25:30.173Z,14.84
2023-05-18T00:27:57.531Z,14.85
2023-05-18T00:30:26.034Z,14.88
2023-05-18T00:32:53.240Z,14.87
2023-05-18T00:35:20.845Z,14.84
2023-05-18T00:37:48.224Z,14.85
2023-05-18T00:40:15.660Z,14.82
2023-05-18T00:42:43.098Z,14.78
2023-05-18T00:45:11.647Z,14.77
2023-05-18T00:47:38.919Z,14.77
2023-05-18T00:50:07.010Z,14.77
2023-05-18T00:52:35.252Z,14.76
2023-05-18T00:55:02.705Z,14.76
2023-05-18T00:57:29.919Z,14.76
2023-05-18T00:59:58.201Z,14.78
2023-05-18T01:02:25.635Z,14.77
2023-05-18T01:04:53.236Z,14.75
2023-05-18T01:07:23.569Z,14.74
2023-05-18T01:09:50.934Z,14.73
2023-05-18T01:12:25.587Z,14.72
2023-05-18T01:14:57.081Z,14.72
2023-05-18T01:17:27.968Z,14.71
2023-05-18T01:20:01.816Z,14.69
2023-05-18T01:22:35.256Z,14.68
2023-05-18T01:25:15.208Z,14.67
2023-05-18T01:27:46.844Z,14.69
2023-05-18T01:30:18.531Z,14.70
2023-05-18T01:32:47.503Z,14.66
2023-05-18T01:35:14.902Z,14.65
2023-05-18T01:37:42.204Z,14.66
2023-05-18T01:40:09.809Z,14.66
2023-05-18T01:42:45.108Z,14.67
2023-05-18T01:45:22.649Z,14.68
2023-05-18T01:47:53.838Z,14.65
2023-05-18T01:50:32.437Z,14.64
2023-05-18T01:53:10.009Z,14.63
2023-05-18T01:55:39.105Z,14.63
2023-05-18T01:58:08.616Z,14.61
2023-05-18T02:00:36.768Z,14.60
2023-05-18T02:03:04.311Z,14.55
2023-05-18T02:05:31.794Z,14.52
2023-05-18T02:07:59.329Z,14.51
2023-05-18T02:10:26.600Z,14.49
2023-05-18T02:12:54.377Z,14.47
2023-05-18T02:15:22.480Z,14.48
2023-05-18T02:17:49.928Z,14.48
2023-05-18T02:20:20.383Z,14.44
2023-05-18T02:22:47.636Z,14.44
2023-05-18T02:25:14.951Z,14.43
2023-05-18T02:27:42.189Z,14.41
2023-05-18T02:30:10.160Z,14.43
2023-05-18T02:32:38.887Z,14.43
2023-05-18T02:35:07.772Z,14.42
2023-05-18T02:37:39.628Z,14.43
2023-05-18T02:40:11.156Z,14.40
2023-05-18T02:42:38.859Z,14.38
2023-05-18T02:45:07.497Z,14.35
2023-05-18T02:47:35.161Z,14.37
2023-05-18T02:50:02.445Z,14.36
2023-05-18T02:52:29.709Z,14.40
2023-05-18T02:54:57.102Z,14.37
2023-05-18T02:57:24.367Z,14.35
2023-05-18T02:59:51.577Z,14.36
2023-05-18T03:02:18.965Z,14.36
2023-05-18T03:04:49.337Z,14.37
2023-05-18T03:07:16.771Z,14.37
2023-05-18T03:09:43.917Z,14.36
2023-05-18T03:12:11.100Z,14.36
2023-05-18T03:14:38.331Z,14.35
2023-05-18T03:17:06.420Z,14.31
2023-05-18T03:19:35.166Z,14.31
2023-05-18T03:22:02.418Z,14.29
2023-05-18T03:24:30.667Z,14.27
2023-05-18T03:26:57.931Z,14.27
2023-05-18T03:29:25.087Z,14.26
2023-05-18T03:31:52.538Z,14.25
2023-05-18T03:34:19.814Z,14.23
2023-05-18T03:36:47.763Z,14.22
2023-05-18T03:39:14.946Z,14.20
2023-05-18T03:41:42.315Z,14.19
2023-05-18T03:44:09.603Z,14.17
2023-05-18T03:46:36.929Z,14.14
2023-05-18T03:49:05.436Z,14.11
2023-05-18T03:51:32.651Z,14.08
2023-05-18T03:53:59.900Z,14.08
2023-05-18T03:56:27.108Z,14.05
2023-05-18T03:58:54.297Z,14.01
2023-05-18T04:01:24.110Z,13.99
2023-05-18T04:03:51.895Z,13.92
2023-05-18T04:06:22.897Z,13.89
2023-05-18T04:08:50.535Z,13.86
2023-05-18T04:11:17.735Z,13.82
2023-05-18T04:13:45.027Z,13.83
2023-05-18T04:16:13.768Z,13.78
2023-05-18T04:18:42.014Z,13.80
2023-05-18T04:21:09.996Z,13.75
2023-05-18T04:23:39.573Z,13.76
2023-05-18T04:26:07.402Z,13.75
2023-05-18T04:28:34.602Z,13.71
2023-05-18T04:31:02.326Z,13.69
2023-05-18T04:33:30.777Z,13.70
2023-05-18T04:35:59.345Z,13.73
2023-05-18T04:38:26.558Z,13.75
2023-05-18T04:40:54.089Z,13.76
2023-05-18T04:43:21.731Z,13.78
2023-05-18T04:45:51.020Z,13.78
2023-05-18T04:48:19.586Z,13.77
2023-05-18T04:50:47.067Z,13.81
2023-05-18T04:53:14.323Z,13.85
2023-05-18T04:55:43.107Z,13.86
2023-05-18T04:58:10.730Z,13.87
2023-05-18T05:00:38.027Z,13.88
2023-05-18T05:03:05.594Z,13.88
2023-05-18T05:05:33.175Z,13.88
2023-05-18T05:08:00.902Z,13.89
2023-05-18T05:10:29.078Z,13.92
2023-05-18T05:12:56.359Z,13.94
2023-05-18T05:15:24.532Z,13.96
2023-05-18T05:17:51.899Z,13.97
2023-05-18T05:20:19.830Z,13.98
2023-05-18T05:22:47.071Z,14.02
2023-05-18T05:25:14.361Z,14.05
2023-05-18T05:27:41.596Z,14.08
2023-05-18T05:30:09.550Z,14.10
2023-05-18T05:32:37.111Z,14.12
2023-05-18T05:35:05.038Z,14.16
2023-05-18T05:37:32.386Z,14.20
2023-05-18T05:39:59.831Z,14.25
2023-05-18T05:42:27.242Z,14.26
2023-05-18T05:44:54.516Z,14.30
2023-05-18T05:47:21.894Z,14.31
2023-05-18T05:49:49.107Z,14.36
2023-05-18T05:52:16.696Z,14.39
2023-05-18T05:54:43.967Z,14.44
2023-05-18T05:57:11.363Z,14.46
2023-05-18T05:59:38.638Z,14.49
2023-05-18T06:02:06.127Z,14.52
2023-05-18T06:04:33.524Z,14.57
2023-05-18T06:07:01.121Z,14.66
2023-05-18T06:09:28.529Z,14.85
2023-05-18T06:11:55.870Z,15.19
2023-05-18T06:14:23.183Z,15.52
2023-05-18T06:16:50.569Z,15.70
2023-05-18T06:19:18.116Z,15.75
2023-05-18T06:21:45.957Z,15.80
2023-05-18T06:24:13.392Z,16.12
2023-05-18T06:26:41.121Z,16.57
2023-05-18T06:29:09.337Z,16.89
2023-05-18T06:31:36.761Z,17.00
2023-05-18T06:34:04.378Z,17.10
2023-05-18T06:36:32.515Z,17.32
2023-05-18T06:38:59.846Z,17.55
2023-05-18T06:41:27.324Z,17.49
2023-05-18T06:43:54.767Z,17.33
2023-05-18T06:46:23.241Z,17.15
2023-05-18T06:48:50.677Z,17.02
2023-05-18T06:51:18.064Z,16.90
2023-05-18T06:53:45.958Z,16.81
2023-05-18T06:56:13.672Z,16.76
2023-05-18T06:58:42.778Z,16.72
2023-05-18T07:01:10.957Z,16.66
2023-05-18T07:03:38.546Z,16.67
2023-05-18T07:06:06.558Z,16.70
2023-05-18T07:08:34.500Z,16.72
2023-05-18T07:11:02.805Z,16.71
2023-05-18T07:13:30.600Z,16.69
2023-05-18T07:15:58.378Z,16.66
2023-05-18T07:18:25.766Z,16.66
2023-05-18T07:20:53.198Z,16.74
2023-05-18T07:23:20.652Z,16.73
2023-05-18T07:25:47.994Z,16.68
2023-05-18T07:28:15.572Z,16.81
2023-05-18T07:30:43.184Z,16.96
2023-05-18T07:33:10.845Z,17.17
2023-05-18T07:35:38.988Z,17.49
2023-05-18T07:38:06.512Z,18.31
2023-05-18T07:40:34.087Z,19.02
2023-05-18T07:43:01.823Z,19.72
2023-05-18T07:45:37.148Z,20.06
2023-05-18T07:48:04.826Z,20.26
2023-05-18T07:50:35.274Z,20.71
2023-05-18T07:53:02.743Z,20.84
2023-05-18T07:55:30.355Z,20.58
2023-05-18T07:58:02.614Z,20.15
2023-05-18T08:00:31.703Z,20.01
2023-05-18T08:03:01.184Z,19.78
2023-05-18T08:05:43.561Z,19.45
2023-05-18T08:08:12.314Z,19.10
2023-05-18T08:10:39.995Z,18.83
2023-05-18T08:13:08.094Z,18.72
2023-05-18T08:16:02.956Z,18.57
2023-05-18T08:18:37.904Z,18.57
2023-05-18T08:21:08.585Z,18.77
2023-05-18T08:23:37.301Z,18.97
2023-05-18T08:26:10.602Z,18.86
2023-05-18T08:28:39.346Z,18.70
2023-05-18T08:31:06.640Z,18.56
2023-05-18T08:33:34.094Z,18.43
2023-05-18T08:36:01.608Z,18.26
2023-05-18T08:38:29.008Z,18.16
2023-05-18T08:41:02.754Z,18.10
2023-05-18T08:43:33.773Z,18.08
2023-05-18T08:46:07.245Z,18.15
2023-05-18T08:48:36.542Z,18.26
2023-05-18T08:51:07.507Z,18.50
2023-05-18T08:53:38.520Z,18.64
2023-05-18T08:56:06.634Z,18.83
2023-05-18T08:58:38.737Z,18.86
2023-05-18T09:01:06.521Z,18.77
2023-05-18T09:03:34.662Z,18.78
2023-05-18T09:06:11.886Z,18.79
2023-05-18T09:08:40.503Z,18.69
2023-05-18T09:11:09.050Z,18.48
2023-05-18T09:13:36.957Z,18.25
2023-05-18T09:16:04.800Z,18.25
2023-05-18T09:18:32.683Z,18.21
2023-05-18T09:21:00.758Z,18.22
2023-05-18T09:23:28.525Z,18.19
2023-05-18T09:25:57.340Z,18.20
2023-05-18T09:28:28.774Z,18.14
2023-05-18T09:30:56.547Z,18.20
2023-05-18T09:33:24.144Z,18.27
2023-05-18T09:35:53.000Z,18.37
2023-05-18T09:38:23.720Z,18.52
2023-05-18T09:40:51.773Z,18.55
2023-05-18T09:43:20.316Z,18.58
2023-05-18T09:45:54.294Z,18.66
2023-05-18T09:48:25.302Z,18.72
2023-05-18T09:50:53.108Z,18.76
2023-05-18T09:53:21.045Z,18.79
2023-05-18T09:55:52.606Z,18.87
2023-05-18T09:58:20.080Z,18.90
2023-05-18T10:00:52.257Z,18.96
2023-05-18T10:03:23.623Z,18.91
2023-05-18T10:05:54.903Z,18.86
2023-05-18T10:08:22.362Z,18.85
2023-05-18T10:10:51.845Z,18.80
2023-05-18T10:13:37.460Z,18.73
2023-05-18T10:16:12.538Z,18.75
2023-05-18T10:18:41.919Z,18.82
2023-05-18T10:21:14.849Z,18.91
2023-05-18T10:23:49.773Z,18.95
2023-05-18T10:26:24.911Z,18.80
2023-05-18T10:29:04.529Z,18.72
2023-05-18T10:31:38.048Z,18.73
2023-05-18T10:34:06.894Z,18.79
2023-05-18T10:36:36.835Z,18.89
2023-05-18T10:39:04.880Z,18.92
2023-05-18T10:41:34.870Z,18.94
2023-05-18T10:44:04.848Z,18.98
2023-05-18T10:46:37.790Z,19.02
2023-05-18T10:49:16.036Z,19.08
2023-05-18T10:51:45.598Z,19.08
2023-05-18T10:54:14.757Z,19.06
2023-05-18T10:56:46.631Z,19.11
2023-05-18T10:59:15.748Z,19.12
2023-05-18T11:01:44.338Z,19.15
2023-05-18T11:04:12.848Z,19.21
2023-05-18T11:06:40.925Z,19.29
2023-05-18T11:09:09.149Z,19.40
2023-05-18T11:11:43.309Z,19.38
2023-05-18T11:14:11.074Z,19.38
2023-05-18T11:16:42.920Z,19.41
2023-05-18T11:19:12.804Z,19.55
2023-05-18T11:21:43.064Z,19.58
2023-05-18T11:24:17.069Z,19.60
2023-05-18T11:26:49.183Z,19.64
2023-05-18T11:29:23.239Z,19.58
2023-05-18T11:31:55.009Z,19.60
2023-05-18T11:34:29.068Z,19.46
2023-05-18T11:36:57.567Z,19.41
2023-05-18T11:39:25.796Z,19.38
2023-05-18T11:41:59.481Z,19.36
2023-05-18T11:44:29.149Z,19.41
2023-05-18T11:47:01.834Z,19.42
2023-05-18T11:49:34.344Z,19.45
2023-05-18T11:52:07.467Z,19.46
2023-05-18T11:54:39.134Z,19.50
2023-05-18T11:57:07.536Z,19.55
2023-05-18T11:59:39.730Z,19.61
2023-05-18T12:02:09.334Z,19.66
2023-05-18T12:04:42.885Z,19.46
2023-05-18T12:07:10.817Z,19.46
2023-05-18T12:09:42.664Z,19.43
2023-05-18T12:12:12.031Z,19.45
2023-05-18T12:14:43.201Z,19.52
2023-05-18T12:17:11.811Z,19.60
2023-05-18T12:19:48.342Z,19.64
2023-05-18T12:22:17.397Z,19.53
2023-05-18T12:24:45.028Z,19.40
2023-05-18T12:27:13.785Z,19.45
2023-05-18T12:29:42.898Z,19.49
2023-05-18T12:32:12.896Z,19.56
2023-05-18T12:34:41.241Z,19.64
2023-05-18T12:37:08.849Z,19.72
2023-05-18T12:39:38.262Z,19.76
2023-05-18T12:42:11.388Z,19.70
2023-05-18T12:44:39.618Z,19.70
2023-05-18T12:47:07.715Z,19.72
2023-05-18T12:49:38.818Z,19.74
2023-05-18T12:52:12.269Z,19.70
2023-05-18T12:54:50.894Z,19.72
2023-05-18T12:57:21.630Z,19.77
2023-05-18T12:59:50.808Z,19.78
2023-05-18T13:02:24.683Z,19.86
2023-05-18T13:05:02.890Z,20.01
2023-05-18T13:07:30.814Z,20.05
2023-05-18T13:10:02.538Z,20.02
2023-05-18T13:12:36.815Z,20.08
2023-05-18T13:15:10.054Z,20.16
2023-05-18T13:17:37.995Z,20.21
2023-05-18T13:20:14.827Z,20.22
2023-05-18T13:22:43.641Z,20.21
2023-05-18T13:25:11.460Z,20.27
2023-05-18T13:27:39.613Z,20.38
2023-05-18T13:30:09.282Z,20.40
2023-05-18T13:32:36.990Z,20.31
2023-05-18T13:35:05.781Z,20.28
2023-05-18T13:37:33.647Z,20.24
2023-05-18T13:40:01.392Z,20.24
2023-05-18T13:42:29.412Z,20.27
2023-05-18T13:44:57.709Z,20.34
2023-05-18T13:47:26.415Z,20.21
2023-05-18T13:49:54.365Z,20.17
2023-05-18T13:52:22.200Z,20.16
2023-05-18T13:54:50.117Z,20.13
2023-05-18T13:57:17.825Z,20.23
2023-05-18T13:59:45.624Z,20.29
2023-05-18T14:02:13.527Z,20.33
2023-05-18T14:04:41.785Z,20.42
2023-05-18T14:07:10.116Z,20.46
2023-05-18T14:09:41.881Z,20.43
2023-05-18T14:12:11.448Z,20.43
2023-05-18T14:14:39.534Z,20.48
2023-05-18T14:17:09.843Z,20.54
2023-05-18T14:19:42.782Z,20.60
2023-05-18T14:22:17.008Z,20.67
2023-05-18T14:24:55.652Z,20.72
2023-05-18T14:30:11.300Z,20.88
2023-05-18T14:32:38.981Z,20.90
2023-05-18T14:35:07.283Z,20.90
2023-05-18T14:37:38.481Z,20.97
2023-05-18T14:40:33.535Z,21.01
2023-05-18T14:43:04.895Z,20.98
2023-05-18T14:46:04.217Z,20.86
2023-05-18T14:48:48.996Z,20.76
2023-05-18T14:51:18.825Z,20.71
2023-05-18T14:53:58.177Z,20.64
2023-05-18T14:56:35.633Z,20.63
2023-05-18T14:59:12.389Z,20.52
2023-05-18T15:01:43.836Z,20.51
2023-05-18T15:04:12.811Z,20.51
2023-05-18T15:06:45.384Z,20.54
2023-05-18T15:09:13.861Z,20.67
2023-05-18T15:11:42.043Z,20.69
2023-05-18T15:14:10.119Z,20.77
2023-05-18T15:16:42.968Z,20.88
2023-05-18T15:19:11.593Z,20.86
2023-05-18T15:21:40.258Z,20.84
2023-05-18T15:24:09.019Z,20.85
2023-05-18T15:29:37.191Z,20.74
2023-05-18T15:32:06.228Z,20.62
2023-05-18T15:34:35.646Z,20.57
2023-05-18T15:37:05.120Z,20.54
2023-05-18T15:39:32.867Z,20.52
2023-05-18T15:42:00.944Z,20.53
2023-05-18T15:44:29.685Z,20.52
2023-05-18T15:46:58.796Z,20.47
2023-05-18T15:49:35.119Z,20.47
2023-05-18T15:52:03.476Z,20.46
2023-05-18T15:54:31.464Z,20.49
2023-05-18T15:56:59.726Z,20.49
2023-05-18T15:59:29.500Z,20.53
2023-05-18T16:01:57.482Z,20.55
2023-05-18T16:04:25.632Z,20.57
2023-05-18T16:06:56.974Z,20.62
2023-05-18T16:09:27.598Z,20.58
2023-05-18T16:11:55.154Z,20.58
2023-05-18T16:14:22.293Z,20.48
2023-05-18T16:17:03.756Z,20.42
2023-05-18T16:19:33.432Z,20.34
2023-05-18T16:24:55.938Z,20.34
2023-05-18T16:27:23.288Z,20.32
2023-05-18T16:29:52.464Z,20.24
2023-05-18T16:32:19.934Z,20.17
2023-05-18T16:34:47.375Z,20.08
2023-05-18T16:37:14.736Z,20.01
2023-05-18T16:39:42.657Z,20.05
2023-05-18T16:42:10.463Z,20.08
2023-05-18T16:44:43.712Z,20.05
2023-05-18T16:47:11.392Z,19.93
2023-05-18T16:49:40.713Z,19.93
2023-05-18T16:52:11.641Z,19.91
2023-05-18T16:54:38.692Z,19.90
2023-05-18T16:57:07.255Z,19.86
2023-05-18T16:59:38.368Z,19.80
2023-05-18T17:02:14.007Z,19.80
2023-05-18T17:04:43.875Z,19.76
2023-05-18T17:07:18.372Z,19.72
2023-05-18T17:09:49.844Z,19.69
2023-05-18T17:12:23.081Z,19.68
2023-05-18T17:14:53.151Z,19.68
2023-05-18T17:17:21.418Z,19.63
2023-05-18T17:19:49.209Z,19.58
2023-05-18T17:22:16.839Z,19.55
2023-05-18T17:24:45.621Z,19.55
2023-05-18T17:27:13.144Z,19.54
2023-05-18T17:29:41.706Z,19.48
2023-05-18T17:32:10.742Z,19.45
2023-05-18T17:34:39.221Z,19.48
2023-05-18T17:37:08.238Z,19.49
2023-05-18T17:39:36.545Z,19.49
2023-05-18T17:42:04.285Z,19.46
2023-05-18T17:44:31.909Z,19.46
2023-05-18T17:46:59.491Z,19.43
2023-05-18T17:49:27.885Z,19.42
2023-05-18T17:51:55.130Z,19.42
2023-05-18T17:54:22.955Z,19.43
2023-05-18T17:56:50.346Z,19.40
2023-05-18T17:59:17.892Z,19.37
2023-05-18T18:01:45.446Z,19.35
2023-05-18T18:04:12.864Z,19.37
2023-05-18T18:06:43.129Z,19.37
2023-05-18T18:09:11.891Z,19.34
2023-05-18T18:11:39.314Z,19.31
2023-05-18T18:14:06.535Z,19.27
2023-05-18T18:16:34.907Z,19.20
2023-05-18T18:19:03.171Z,19.18
2023-05-18T18:21:30.529Z,19.15
2023-05-18T18:23:58.011Z,19.16
2023-05-18T18:26:25.513Z,19.11
2023-05-18T18:28:53.272Z,19.10
2023-05-18T18:31:21.313Z,19.09
2023-05-18T18:33:50.751Z,19.07
2023-05-18T18:36:18.975Z,19.02
2023-05-18T18:38:46.609Z,18.98
2023-05-18T18:41:17.431Z,18.96
2023-05-18T18:43:44.905Z,18.91
2023-05-18T18:46:12.752Z,18.85
2023-05-18T18:48:40.131Z,18.83
2023-05-18T18:51:07.375Z,18.79
2023-05-18T18:53:34.576Z,18.76
2023-05-18T18:56:01.784Z,18.73
2023-05-18T18:58:29.174Z,18.70
2023-05-18T19:00:56.676Z,18.65
2023-05-18T19:03:24.330Z,18.62
2023-05-18T19:05:51.757Z,18.59
2023-05-18T19:08:19.057Z,18.57
2023-05-18T19:10:46.581Z,18.54
2023-05-18T19:13:13.836Z,18.48
2023-05-18T19:15:41.094Z,18.47
2023-05-18T19:18:08.599Z,18.41
2023-05-18T19:20:36.078Z,18.39
2023-05-18T19:23:05.950Z,18.39
2023-05-18T19:25:33.468Z,18.37
2023-05-18T19:28:00.994Z,18.33
2023-05-18T19:30:28.267Z,18.31
2023-05-18T19:32:55.514Z,18.23
2023-05-18T19:35:24.195Z,18.17
2023-05-18T19:37:51.863Z,18.09
2023-05-18T19:40:19.732Z,18.03
2023-05-18T19:42:46.885Z,17.98
2023-05-18T19:45:14.367Z,17.94
2023-05-18T19:47:41.760Z,17.92
2023-05-18T19:50:09.121Z,17.89
2023-05-18T19:52:36.376Z,17.87
2023-05-18T19:55:03.651Z,17.82
2023-05-18T19:57:30.995Z,17.77
2023-05-18T19:59:58.147Z,17.73
2023-05-18T20:02:25.606Z,17.64
2023-05-18T20:04:53.925Z,17.63
2023-05-18T20:07:22.144Z,17.60
2023-05-18T20:09:49.332Z,17.58
2023-05-18T20:12:16.487Z,17.52
2023-05-18T20:14:43.768Z,17.47
2023-05-18T20:17:11.083Z,17.47
2023-05-18T20:19:38.345Z,17.43
2023-05-18T20:22:11.205Z,17.42
2023-05-18T20:24:38.903Z,17.34
2023-05-18T20:27:06.353Z,17.31
2023-05-18T20:29:33.613Z,17.31
2023-05-18T20:32:00.886Z,17.28
2023-05-18T20:34:28.136Z,17.22
2023-05-18T20:36:55.381Z,17.19
2023-05-18T20:39:22.554Z,17.20
2023-05-18T20:41:50.764Z,17.16
2023-05-18T20:44:18.111Z,17.14
2023-05-18T20:46:45.345Z,17.11
2023-05-18T20:49:13.180Z,17.05
2023-05-18T20:51:40.419Z,17.04
2023-05-18T20:54:07.623Z,17.00
2023-05-18T20:56:36.684Z,17.00
2023-05-18T20:59:06.142Z,16.96
2023-05-18T21:01:39.933Z,16.95
2023-05-18T21:04:08.022Z,16.91
2023-05-18T21:06:40.816Z,16.86
2023-05-18T21:09:08.409Z,16.80
2023-05-18T21:11:36.085Z,16.76
2023-05-18T21:14:03.264Z,16.73
2023-05-18T21:16:30.502Z,16.71
2023-05-18T21:18:57.724Z,16.73
2023-05-18T21:21:24.890Z,16.73
2023-05-18T21:23:52.208Z,16.68
2023-05-18T21:26:19.483Z,16.65
2023-05-18T21:28:46.651Z,16.64
2023-05-18T21:31:14.293Z,16.63
2023-05-18T21:33:42.232Z,16.58
2023-05-18T21:36:10.181Z,16.57
2023-05-18T21:38:37.334Z,16.52
2023-05-18T21:41:04.553Z,16.48
2023-05-18T21:43:31.733Z,16.47
2023-05-18T21:45:59.103Z,16.43
2023-05-18T21:48:26.347Z,16.41
2023-05-18T21:50:53.489Z,16.39
2023-05-18T21:53:20.707Z,16.35
2023-05-18T21:55:48.109Z,16.29
2023-05-18T21:58:15.644Z,16.30
2023-05-18T22:00:42.976Z,16.25
2023-05-18T22:03:10.106Z,16.21
2023-05-18T22:05:38.138Z,16.21
2023-05-18T22:08:05.394Z,16.17
2023-05-18T22:10:33.246Z,16.15
2023-05-18T22:13:01.134Z,16.15
2023-05-18T22:15:29.638Z,16.16
2023-05-18T22:17:57.145Z,16.12
2023-05-18T22:20:24.377Z,16.16
2023-05-18T22:22:51.576Z,16.12
2023-05-18T22:25:18.776Z,16.09
2023-05-18T22:27:46.120Z,16.08
2023-05-18T22:30:14.471Z,16.04
2023-05-18T22:32:41.659Z,16.00
2023-05-18T22:35:10.114Z,15.95
2023-05-18T22:37:37.177Z,15.94
2023-05-18T22:40:06.812Z,15.88
2023-05-18T22:42:34.316Z,15.89
2023-05-18T22:45:02.607Z,15.83
2023-05-18T22:47:30.362Z,15.80
2023-05-18T22:49:57.515Z,15.81
2023-05-18T22:52:24.737Z,15.78
2023-05-18T22:54:51.777Z,15.76
2023-05-18T22:57:18.883Z,15.77
2023-05-18T22:59:45.955Z,15.77
2023-05-18T23:02:13.043Z,15.73
2023-05-18T23:04:40.173Z,15.70
2023-05-18T23:07:07.745Z,15.68
2023-05-18T23:09:37.390Z,15.66
2023-05-18T23:12:05.000Z,15.66
2023-05-18T23:14:34.031Z,15.64
2023-05-18T23:17:01.195Z,15.66
2023-05-18T23:19:29.158Z,15.60
2023-05-18T23:21:56.931Z,15.58
2023-05-18T23:24:23.994Z,15.55
2023-05-18T23:26:51.091Z,15.52
2023-05-18T23:29:18.232Z,15.54
2023-05-18T23:31:45.369Z,15.54
2023-05-18T23:34:12.961Z,15.52
2023-05-18T23:36:43.055Z,15.50
2023-05-18T23:39:10.891Z,15.50
2023-05-18T23:41:39.293Z,15.49
2023-05-18T23:44:07.184Z,15.47
2023-05-18T23:46:35.184Z,15.46
2023-05-18T23:49:02.957Z,15.42
2023-05-18T23:51:36.178Z,15.36
2023-05-18T23:54:07.569Z,15.34
2023-05-18T23:56:35.847Z,15.30
2023-05-18T23:59:03.693Z,15.28
